sensor_id;sensor_type;location;lat;lon;timestamp;temperature;humidity
21834;DHT22;11079;51.092;3.458;2022-09-03T00:01:47;20.50;99.90
21834;DHT22;11079;51.092;3.458;2022-09-03T00:04:27;20.50;99.90
21834;DHT22;11079;51.092;3.458;2022-09-03T00:07:02;20.40;99.90
21834;DHT22;11079;51.092;3.458;2022-09-03T00:09:40;20.30;99.90
21834;DHT22;11079;51.092;3.458;2022-09-03T00:12:21;20.20;99.90
21834;DHT22;11079;51.092;3.458;2022-09-03T00:15:03;20.20;99.90
21834;DHT22;11079;51.092;3.458;2022-09-03T00:17:37;20.30;99.90
21834;DHT22;11079;51.092;3.458;2022-09-03T00:22:36;20.30;99.90
21834;DHT22;11079;51.092;3.458;2022-09-03T00:25:06;20.30;99.90
21834;DHT22;11079;51.092;3.458;2022-09-03T00:27:37;20.40;99.90
21834;DHT22;11079;51.092;3.458;2022-09-03T00:30:09;20.30;99.90
21834;DHT22;11079;51.092;3.458;2022-09-03T00:32:51;20.40;99.90
21834;DHT22;11079;51.092;3.458;2022-09-03T00:35:34;20.50;99.90
21834;DHT22;11079;51.092;3.458;2022-09-03T00:38:02;20.40;99.90
21834;DHT22;11079;51.092;3.458;2022-09-03T00:40:35;20.30;99.90
21834;DHT22;11079;51.092;3.458;2022-09-03T00:43:28;20.30;99.90
21834;DHT22;11079;51.092;3.458;2022-09-03T00:49:22;19.90;99.90
21834;DHT22;11079;51.092;3.458;2022-09-03T00:51:51;19.90;99.90
21834;DHT22;11079;51.092;3.458;2022-09-03T00:57:22;19.80;99.90
21834;DHT22;11079;51.092;3.458;2022-09-03T01:02:49;19.90;99.90
21834;DHT22;11079;51.092;3.458;2022-09-03T01:05:26;19.80;99.90
21834;DHT22;11079;51.092;3.458;2022-09-03T01:13:06;20.00;99.90
21834;DHT22;11079;51.092;3.458;2022-09-03T01:18:24;19.90;99.90
21834;DHT22;11079;51.092;3.458;2022-09-03T01:21:24;20.00;99.90
21834;DHT22;11079;51.092;3.458;2022-09-03T01:30:06;20.10;99.90
21834;DHT22;11079;51.092;3.458;2022-09-03T01:32:42;20.10;99.90
21834;DHT22;11079;51.092;3.458;2022-09-03T01:39:22;20.20;99.90
21834;DHT22;11079;51.092;3.458;2022-09-03T01:41:21;20.10;99.90
21834;DHT22;11079;51.092;3.458;2022-09-03T01:47:31;20.30;99.90
21834;DHT22;11079;51.092;3.458;2022-09-03T01:50:20;20.40;99.90
21834;DHT22;11079;51.092;3.458;2022-09-03T01:53:33;20.30;99.90
21834;DHT22;11079;51.092;3.458;2022-09-03T02:01:40;20.00;99.90
21834;DHT22;11079;51.092;3.458;2022-09-03T02:04:22;19.60;99.90
21834;DHT22;11079;51.092;3.458;2022-09-03T02:06:50;19.60;99.90
21834;DHT22;11079;51.092;3.458;2022-09-03T02:09:17;19.60;99.90
21834;DHT22;11079;51.092;3.458;2022-09-03T02:11:44;19.40;99.90
21834;DHT22;11079;51.092;3.458;2022-09-03T02:14:11;19.30;99.90
21834;DHT22;11079;51.092;3.458;2022-09-03T02:16:38;19.10;99.90
21834;DHT22;11079;51.092;3.458;2022-09-03T02:19:06;19.10;99.90
21834;DHT22;11079;51.092;3.458;2022-09-03T02:21:56;19.20;99.90
21834;DHT22;11079;51.092;3.458;2022-09-03T02:24:23;19.20;99.90
21834;DHT22;11079;51.092;3.458;2022-09-03T02:26:49;19.30;99.90
21834;DHT22;11079;51.092;3.458;2022-09-03T02:29:15;19.20;99.90
21834;DHT22;11079;51.092;3.458;2022-09-03T02:31:42;19.20;99.90
21834;DHT22;11079;51.092;3.458;2022-09-03T02:34:10;19.10;99.90
21834;DHT22;11079;51.092;3.458;2022-09-03T02:36:46;19.20;99.90
21834;DHT22;11079;51.092;3.458;2022-09-03T02:39:13;19.20;99.90
21834;DHT22;11079;51.092;3.458;2022-09-03T02:41:39;19.20;99.90
21834;DHT22;11079;51.092;3.458;2022-09-03T02:44:25;19.20;99.90
21834;DHT22;11079;51.092;3.458;2022-09-03T02:47:03;19.30;99.90
21834;DHT22;11079;51.092;3.458;2022-09-03T02:49:30;19.20;99.90
21834;DHT22;11079;51.092;3.458;2022-09-03T02:51:58;19.30;99.90
21834;DHT22;11079;51.092;3.458;2022-09-03T02:54:26;19.20;99.90
21834;DHT22;11079;51.092;3.458;2022-09-03T02:56:52;19.00;99.90
21834;DHT22;11079;51.092;3.458;2022-09-03T02:59:18;19.00;99.90
21834;DHT22;11079;51.092;3.458;2022-09-03T03:01:44;19.00;99.90
21834;DHT22;11079;51.092;3.458;2022-09-03T03:04:10;19.10;99.90
21834;DHT22;11079;51.092;3.458;2022-09-03T03:06:35;19.20;99.90
21834;DHT22;11079;51.092;3.458;2022-09-03T03:09:01;19.40;99.90
21834;DHT22;11079;51.092;3.458;2022-09-03T03:11:28;19.60;99.90
21834;DHT22;11079;51.092;3.458;2022-09-03T03:13:54;19.70;99.90
21834;DHT22;11079;51.092;3.458;2022-09-03T03:16:21;19.70;99.90
21834;DHT22;11079;51.092;3.458;2022-09-03T03:18:48;19.80;99.90
21834;DHT22;11079;51.092;3.458;2022-09-03T03:21:16;19.90;99.90
21834;DHT22;11079;51.092;3.458;2022-09-03T03:23:42;19.90;99.90
21834;DHT22;11079;51.092;3.458;2022-09-03T03:26:10;19.80;99.90
21834;DHT22;11079;51.092;3.458;2022-09-03T03:28:36;19.80;99.90
21834;DHT22;11079;51.092;3.458;2022-09-03T03:31:13;20.00;99.90
21834;DHT22;11079;51.092;3.458;2022-09-03T03:33:40;20.10;99.90
21834;DHT22;11079;51.092;3.458;2022-09-03T03:36:07;20.10;99.90
21834;DHT22;11079;51.092;3.458;2022-09-03T03:38:34;20.20;99.90
21834;DHT22;11079;51.092;3.458;2022-09-03T03:41:06;20.00;99.90
21834;DHT22;11079;51.092;3.458;2022-09-03T03:43:32;19.70;99.90
21834;DHT22;11079;51.092;3.458;2022-09-03T03:45:58;19.80;99.90
21834;DHT22;11079;51.092;3.458;2022-09-03T03:48:26;19.90;99.90
21834;DHT22;11079;51.092;3.458;2022-09-03T03:50:52;19.70;99.90
21834;DHT22;11079;51.092;3.458;2022-09-03T03:53:18;19.70;99.90
21834;DHT22;11079;51.092;3.458;2022-09-03T03:55:56;19.60;99.90
21834;DHT22;11079;51.092;3.458;2022-09-03T03:58:23;19.60;99.90
21834;DHT22;11079;51.092;3.458;2022-09-03T04:00:52;19.50;99.90
21834;DHT22;11079;51.092;3.458;2022-09-03T04:03:17;19.60;99.90
21834;DHT22;11079;51.092;3.458;2022-09-03T04:05:54;19.70;99.90
21834;DHT22;11079;51.092;3.458;2022-09-03T04:08:20;19.70;99.90
21834;DHT22;11079;51.092;3.458;2022-09-03T04:10:46;19.50;99.90
21834;DHT22;11079;51.092;3.458;2022-09-03T04:13:12;19.50;99.90
21834;DHT22;11079;51.092;3.458;2022-09-03T04:15:37;19.40;99.90
21834;DHT22;11079;51.092;3.458;2022-09-03T04:18:03;19.40;99.90
21834;DHT22;11079;51.092;3.458;2022-09-03T04:20:29;19.20;99.90
21834;DHT22;11079;51.092;3.458;2022-09-03T04:22:58;19.10;99.90
21834;DHT22;11079;51.092;3.458;2022-09-03T04:25:25;19.00;99.90
21834;DHT22;11079;51.092;3.458;2022-09-03T04:27:51;19.00;99.90
21834;DHT22;11079;51.092;3.458;2022-09-03T04:30:17;19.00;99.90
21834;DHT22;11079;51.092;3.458;2022-09-03T04:32:43;19.00;99.90
21834;DHT22;11079;51.092;3.458;2022-09-03T04:35:23;19.20;99.90
21834;DHT22;11079;51.092;3.458;2022-09-03T04:37:49;19.10;99.90
21834;DHT22;11079;51.092;3.458;2022-09-03T04:40:15;19.20;99.90
21834;DHT22;11079;51.092;3.458;2022-09-03T04:42:41;19.20;99.90
21834;DHT22;11079;51.092;3.458;2022-09-03T04:45:07;19.20;99.90
21834;DHT22;11079;51.092;3.458;2022-09-03T04:47:33;19.40;99.90
21834;DHT22;11079;51.092;3.458;2022-09-03T04:50:02;19.30;99.90
21834;DHT22;11079;51.092;3.458;2022-09-03T04:52:28;19.10;99.90
21834;DHT22;11079;51.092;3.458;2022-09-03T04:54:56;19.10;99.90
21834;DHT22;11079;51.092;3.458;2022-09-03T04:57:22;18.90;99.90
21834;DHT22;11079;51.092;3.458;2022-09-03T04:59:48;18.90;99.90
21834;DHT22;11079;51.092;3.458;2022-09-03T05:02:13;18.90;99.90
21834;DHT22;11079;51.092;3.458;2022-09-03T05:04:40;19.00;99.90
21834;DHT22;11079;51.092;3.458;2022-09-03T05:07:07;18.90;99.90
21834;DHT22;11079;51.092;3.458;2022-09-03T05:09:32;19.00;99.90
21834;DHT22;11079;51.092;3.458;2022-09-03T05:11:58;19.20;99.90
21834;DHT22;11079;51.092;3.458;2022-09-03T05:14:24;19.10;99.90
21834;DHT22;11079;51.092;3.458;2022-09-03T05:16:50;19.00;99.90
21834;DHT22;11079;51.092;3.458;2022-09-03T05:19:15;18.90;99.90
21834;DHT22;11079;51.092;3.458;2022-09-03T05:21:41;18.80;99.90
21834;DHT22;11079;51.092;3.458;2022-09-03T05:24:08;18.90;99.90
21834;DHT22;11079;51.092;3.458;2022-09-03T05:26:37;19.00;99.90
21834;DHT22;11079;51.092;3.458;2022-09-03T05:29:04;19.00;99.90
21834;DHT22;11079;51.092;3.458;2022-09-03T05:31:33;19.10;99.90
21834;DHT22;11079;51.092;3.458;2022-09-03T05:34:02;19.20;99.90
21834;DHT22;11079;51.092;3.458;2022-09-03T05:36:30;19.20;99.90
21834;DHT22;11079;51.092;3.458;2022-09-03T05:38:57;19.10;99.90
21834;DHT22;11079;51.092;3.458;2022-09-03T05:41:23;19.10;99.90
21834;DHT22;11079;51.092;3.458;2022-09-03T05:43:50;19.00;99.90
21834;DHT22;11079;51.092;3.458;2022-09-03T05:46:21;19.20;99.90
21834;DHT22;11079;51.092;3.458;2022-09-03T05:48:51;19.30;99.90
21834;DHT22;11079;51.092;3.458;2022-09-03T05:51:17;19.40;99.90
21834;DHT22;11079;51.092;3.458;2022-09-03T05:53:47;19.40;99.90
21834;DHT22;11079;51.092;3.458;2022-09-03T05:56:20;19.50;99.90
21834;DHT22;11079;51.092;3.458;2022-09-03T05:58:51;19.40;99.90
21834;DHT22;11079;51.092;3.458;2022-09-03T06:01:25;19.60;99.90
21834;DHT22;11079;51.092;3.458;2022-09-03T06:03:54;19.80;99.90
21834;DHT22;11079;51.092;3.458;2022-09-03T06:06:21;20.00;99.90
21834;DHT22;11079;51.092;3.458;2022-09-03T06:08:51;20.10;99.90
21834;DHT22;11079;51.092;3.458;2022-09-03T06:11:17;20.30;99.90
21834;DHT22;11079;51.092;3.458;2022-09-03T06:13:42;20.40;99.90
21834;DHT22;11079;51.092;3.458;2022-09-03T06:16:08;20.50;99.90
21834;DHT22;11079;51.092;3.458;2022-09-03T06:18:34;20.50;99.90
21834;DHT22;11079;51.092;3.458;2022-09-03T06:21:02;20.60;99.90
21834;DHT22;11079;51.092;3.458;2022-09-03T06:23:29;20.60;99.90
21834;DHT22;11079;51.092;3.458;2022-09-03T06:26:08;20.80;99.90
21834;DHT22;11079;51.092;3.458;2022-09-03T06:28:36;20.90;99.90
21834;DHT22;11079;51.092;3.458;2022-09-03T06:31:04;20.90;99.90
21834;DHT22;11079;51.092;3.458;2022-09-03T06:33:33;20.90;99.90
21834;DHT22;11079;51.092;3.458;2022-09-03T06:36:00;20.90;99.90
21834;DHT22;11079;51.092;3.458;2022-09-03T06:38:28;20.80;99.90
21834;DHT22;11079;51.092;3.458;2022-09-03T06:40:58;20.70;99.90
21834;DHT22;11079;51.092;3.458;2022-09-03T06:43:30;20.90;99.90
21834;DHT22;11079;51.092;3.458;2022-09-03T06:46:00;21.20;99.90
21834;DHT22;11079;51.092;3.458;2022-09-03T06:48:27;21.20;99.90
21834;DHT22;11079;51.092;3.458;2022-09-03T06:53:34;21.30;99.90
21834;DHT22;11079;51.092;3.458;2022-09-03T06:56:06;21.60;99.90
21834;DHT22;11079;51.092;3.458;2022-09-03T06:58:34;21.80;99.90
21834;DHT22;11079;51.092;3.458;2022-09-03T07:01:05;22.00;99.90
21834;DHT22;11079;51.092;3.458;2022-09-03T07:03:31;22.10;99.90
21834;DHT22;11079;51.092;3.458;2022-09-03T07:06:01;22.10;99.90
21834;DHT22;11079;51.092;3.458;2022-09-03T07:08:27;22.10;99.90
21834;DHT22;11079;51.092;3.458;2022-09-03T07:10:54;22.00;99.90
21834;DHT22;11079;51.092;3.458;2022-09-03T07:13:20;22.10;99.90
21834;DHT22;11079;51.092;3.458;2022-09-03T07:15:46;22.10;99.90
21834;DHT22;11079;51.092;3.458;2022-09-03T07:18:11;22.20;99.90
21834;DHT22;11079;51.092;3.458;2022-09-03T07:20:37;22.40;99.90
21834;DHT22;11079;51.092;3.458;2022-09-03T07:23:02;22.40;99.90
21834;DHT22;11079;51.092;3.458;2022-09-03T07:25:28;22.40;99.90
21834;DHT22;11079;51.092;3.458;2022-09-03T07:27:55;22.20;99.90
21834;DHT22;11079;51.092;3.458;2022-09-03T07:30:21;22.10;99.90
21834;DHT22;11079;51.092;3.458;2022-09-03T07:32:47;22.30;99.90
21834;DHT22;11079;51.092;3.458;2022-09-03T07:35:16;22.50;99.90
21834;DHT22;11079;51.092;3.458;2022-09-03T07:37:42;22.60;99.90
21834;DHT22;11079;51.092;3.458;2022-09-03T07:40:09;22.50;99.90
21834;DHT22;11079;51.092;3.458;2022-09-03T07:42:35;22.60;99.90
21834;DHT22;11079;51.092;3.458;2022-09-03T07:45:05;22.60;99.90
21834;DHT22;11079;51.092;3.458;2022-09-03T07:47:34;22.70;99.90
21834;DHT22;11079;51.092;3.458;2022-09-03T07:50:00;22.80;99.90
21834;DHT22;11079;51.092;3.458;2022-09-03T07:52:26;22.70;99.90
21834;DHT22;11079;51.092;3.458;2022-09-03T07:54:52;22.70;99.90
21834;DHT22;11079;51.092;3.458;2022-09-03T07:57:19;23.00;99.90
21834;DHT22;11079;51.092;3.458;2022-09-03T07:59:44;23.20;99.90
21834;DHT22;11079;51.092;3.458;2022-09-03T08:02:10;23.10;99.90
21834;DHT22;11079;51.092;3.458;2022-09-03T08:04:36;23.30;99.90
21834;DHT22;11079;51.092;3.458;2022-09-03T08:07:03;23.40;99.90
21834;DHT22;11079;51.092;3.458;2022-09-03T08:09:29;23.20;99.90
21834;DHT22;11079;51.092;3.458;2022-09-03T08:11:57;23.30;99.90
21834;DHT22;11079;51.092;3.458;2022-09-03T08:14:23;23.60;99.90
21834;DHT22;11079;51.092;3.458;2022-09-03T08:16:49;23.90;99.90
21834;DHT22;11079;51.092;3.458;2022-09-03T08:19:16;23.90;99.90
21834;DHT22;11079;51.092;3.458;2022-09-03T08:21:42;23.90;99.90
21834;DHT22;11079;51.092;3.458;2022-09-03T08:24:10;24.10;99.90
21834;DHT22;11079;51.092;3.458;2022-09-03T08:26:39;24.50;99.90
21834;DHT22;11079;51.092;3.458;2022-09-03T08:29:06;24.60;99.90
21834;DHT22;11079;51.092;3.458;2022-09-03T08:31:33;24.60;99.90
21834;DHT22;11079;51.092;3.458;2022-09-03T08:34:01;24.90;99.90
21834;DHT22;11079;51.092;3.458;2022-09-03T08:36:32;25.10;99.90
21834;DHT22;11079;51.092;3.458;2022-09-03T08:38:59;25.10;99.90
21834;DHT22;11079;51.092;3.458;2022-09-03T08:47:13;26.00;99.90
21834;DHT22;11079;51.092;3.458;2022-09-03T08:49:57;26.30;99.90
21834;DHT22;11079;51.092;3.458;2022-09-03T08:57:45;26.60;99.90
21834;DHT22;11079;51.092;3.458;2022-09-03T09:00:12;26.40;99.90
21834;DHT22;11079;51.092;3.458;2022-09-03T09:08:43;26.90;99.90
21834;DHT22;11079;51.092;3.458;2022-09-03T09:11:32;26.80;99.90
21834;DHT22;11079;51.092;3.458;2022-09-03T09:14:28;26.80;99.90
21834;DHT22;11079;51.092;3.458;2022-09-03T09:21:58;27.50;99.90
21834;DHT22;11079;51.092;3.458;2022-09-03T09:24:31;27.10;99.90
21834;DHT22;11079;51.092;3.458;2022-09-03T09:27:02;26.90;99.90
21834;DHT22;11079;51.092;3.458;2022-09-03T09:29:36;27.00;99.90
21834;DHT22;11079;51.092;3.458;2022-09-03T09:32:03;27.10;99.90
21834;DHT22;11079;51.092;3.458;2022-09-03T09:34:34;27.20;99.90
21834;DHT22;11079;51.092;3.458;2022-09-03T09:37:03;27.50;99.90
21834;DHT22;11079;51.092;3.458;2022-09-03T09:39:30;27.90;99.90
21834;DHT22;11079;51.092;3.458;2022-09-03T09:42:16;27.40;99.90
21834;DHT22;11079;51.092;3.458;2022-09-03T09:44:45;28.30;99.90
21834;DHT22;11079;51.092;3.458;2022-09-03T09:47:29;29.00;99.90
21834;DHT22;11079;51.092;3.458;2022-09-03T09:50:20;29.80;99.90
21834;DHT22;11079;51.092;3.458;2022-09-03T09:52:47;29.70;99.90
21834;DHT22;11079;51.092;3.458;2022-09-03T09:55:17;29.50;99.90
21834;DHT22;11079;51.092;3.458;2022-09-03T09:57:45;29.60;99.90
21834;DHT22;11079;51.092;3.458;2022-09-03T10:00:17;29.30;99.90
21834;DHT22;11079;51.092;3.458;2022-09-03T10:02:49;29.50;99.90
21834;DHT22;11079;51.092;3.458;2022-09-03T10:05:27;29.80;99.90
21834;DHT22;11079;51.092;3.458;2022-09-03T10:08:07;30.40;99.90
21834;DHT22;11079;51.092;3.458;2022-09-03T10:10:45;30.40;99.90
21834;DHT22;11079;51.092;3.458;2022-09-03T10:13:43;30.80;99.90
21834;DHT22;11079;51.092;3.458;2022-09-03T10:16:14;31.00;99.90
21834;DHT22;11079;51.092;3.458;2022-09-03T10:21:53;31.50;99.90
21834;DHT22;11079;51.092;3.458;2022-09-03T10:27:09;32.20;99.90
21834;DHT22;11079;51.092;3.458;2022-09-03T10:29:39;31.20;99.90
21834;DHT22;11079;51.092;3.458;2022-09-03T10:40:48;30.70;99.90
21834;DHT22;11079;51.092;3.458;2022-09-03T10:46:09;30.50;99.90
21834;DHT22;11079;51.092;3.458;2022-09-03T10:51:24;29.90;99.90
21834;DHT22;11079;51.092;3.458;2022-09-03T10:54:14;29.80;99.90
21834;DHT22;11079;51.092;3.458;2022-09-03T10:57:01;29.70;99.90
21834;DHT22;11079;51.092;3.458;2022-09-03T11:05:21;29.70;99.90
21834;DHT22;11079;51.092;3.458;2022-09-03T11:08:38;29.40;99.90
21834;DHT22;11079;51.092;3.458;2022-09-03T11:10:41;30.10;99.90
21834;DHT22;11079;51.092;3.458;2022-09-03T11:13:10;30.80;99.90
21834;DHT22;11079;51.092;3.458;2022-09-03T11:15:59;31.00;99.90
21834;DHT22;11079;51.092;3.458;2022-09-03T11:21:05;30.70;99.90
21834;DHT22;11079;51.092;3.458;2022-09-03T11:23:41;31.20;99.90
21834;DHT22;11079;51.092;3.458;2022-09-03T11:26:12;31.90;99.90
21834;DHT22;11079;51.092;3.458;2022-09-03T11:29:00;31.50;99.90
21834;DHT22;11079;51.092;3.458;2022-09-03T11:31:58;31.70;99.90
21834;DHT22;11079;51.092;3.458;2022-09-03T11:34:32;31.70;99.90
21834;DHT22;11079;51.092;3.458;2022-09-03T11:39:56;32.00;99.90
21834;DHT22;11079;51.092;3.458;2022-09-03T11:44:59;32.90;99.90
21834;DHT22;11079;51.092;3.458;2022-09-03T11:47:44;32.90;99.90
21834;DHT22;11079;51.092;3.458;2022-09-03T11:50:32;33.00;99.90
21834;DHT22;11079;51.092;3.458;2022-09-03T11:55:51;32.00;99.90
21834;DHT22;11079;51.092;3.458;2022-09-03T11:58:32;32.30;99.90
21834;DHT22;11079;51.092;3.458;2022-09-03T12:01:01;31.60;99.90
21834;DHT22;11079;51.092;3.458;2022-09-03T12:03:36;31.30;99.90
21834;DHT22;11079;51.092;3.458;2022-09-03T12:14:34;32.60;99.90
21834;DHT22;11079;51.092;3.458;2022-09-03T12:19:55;32.30;99.90
21834;DHT22;11079;51.092;3.458;2022-09-03T12:22:25;31.60;99.90
21834;DHT22;11079;51.092;3.458;2022-09-03T12:24:54;31.90;99.90
21834;DHT22;11079;51.092;3.458;2022-09-03T12:27:25;32.70;99.90
21834;DHT22;11079;51.092;3.458;2022-09-03T12:29:59;33.60;99.90
21834;DHT22;11079;51.092;3.458;2022-09-03T12:32:28;34.60;99.90
21834;DHT22;11079;51.092;3.458;2022-09-03T12:34:57;34.30;99.90
21834;DHT22;11079;51.092;3.458;2022-09-03T12:37:26;33.90;99.90
21834;DHT22;11079;51.092;3.458;2022-09-03T12:39:57;35.50;99.50
21834;DHT22;11079;51.092;3.458;2022-09-03T12:42:29;37.60;96.40
21834;DHT22;11079;51.092;3.458;2022-09-03T12:44:55;36.00;94.70
21834;DHT22;11079;51.092;3.458;2022-09-03T12:47:28;35.00;97.10
21834;DHT22;11079;51.092;3.458;2022-09-03T12:49:57;35.10;95.20
21834;DHT22;11079;51.092;3.458;2022-09-03T12:52:36;33.80;96.40
21834;DHT22;11079;51.092;3.458;2022-09-03T13:06:18;36.50;94.10
21834;DHT22;11079;51.092;3.458;2022-09-03T13:09:05;35.60;93.60
21834;DHT22;11079;51.092;3.458;2022-09-03T13:11:33;34.20;95.00
21834;DHT22;11079;51.092;3.458;2022-09-03T13:22:31;32.80;98.00
21834;DHT22;11079;51.092;3.458;2022-09-03T13:25:36;34.70;96.80
21834;DHT22;11079;51.092;3.458;2022-09-03T13:33:40;35.30;93.70
21834;DHT22;11079;51.092;3.458;2022-09-03T13:36:20;33.70;93.60
21834;DHT22;11079;51.092;3.458;2022-09-03T13:41:28;33.90;94.30
21834;DHT22;11079;51.092;3.458;2022-09-03T13:44:15;33.50;94.40
21834;DHT22;11079;51.092;3.458;2022-09-03T13:46:55;33.80;95.00
21834;DHT22;11079;51.092;3.458;2022-09-03T13:49:43;35.00;94.80
21834;DHT22;11079;51.092;3.458;2022-09-03T13:52:36;36.30;92.90
21834;DHT22;11079;51.092;3.458;2022-09-03T13:55:32;34.60;92.10
21834;DHT22;11079;51.092;3.458;2022-09-03T14:01:13;34.50;92.50
21834;DHT22;11079;51.092;3.458;2022-09-03T14:03:54;34.50;91.90
21834;DHT22;11079;51.092;3.458;2022-09-03T14:06:38;34.70;91.10
21834;DHT22;11079;51.092;3.458;2022-09-03T14:09:11;33.90;92.50
21834;DHT22;11079;51.092;3.458;2022-09-03T14:12:13;33.10;93.30
21834;DHT22;11079;51.092;3.458;2022-09-03T14:18:09;31.10;96.70
21834;DHT22;11079;51.092;3.458;2022-09-03T14:20:57;30.30;99.20
21834;DHT22;11079;51.092;3.458;2022-09-03T14:26:19;30.00;99.90
21834;DHT22;11079;51.092;3.458;2022-09-03T14:28:48;29.30;99.90
21834;DHT22;11079;51.092;3.458;2022-09-03T14:36:49;28.70;99.90
21834;DHT22;11079;51.092;3.458;2022-09-03T14:45:08;28.40;99.90
21834;DHT22;11079;51.092;3.458;2022-09-03T14:53:04;29.50;99.90
21834;DHT22;11079;51.092;3.458;2022-09-03T15:11:53;28.00;99.90
21834;DHT22;11079;51.092;3.458;2022-09-03T15:14:37;28.00;99.90
21834;DHT22;11079;51.092;3.458;2022-09-03T15:17:16;27.90;99.90
21834;DHT22;11079;51.092;3.458;2022-09-03T15:31:40;28.40;99.90
21834;DHT22;11079;51.092;3.458;2022-09-03T15:37:18;28.20;99.90
21834;DHT22;11079;51.092;3.458;2022-09-03T15:39:45;28.10;99.90
21834;DHT22;11079;51.092;3.458;2022-09-03T15:42:26;27.80;99.90
21834;DHT22;11079;51.092;3.458;2022-09-03T15:44:56;27.60;99.90
21834;DHT22;11079;51.092;3.458;2022-09-03T15:47:54;27.60;99.90
21834;DHT22;11079;51.092;3.458;2022-09-03T15:50:54;27.80;99.90
21834;DHT22;11079;51.092;3.458;2022-09-03T15:56:33;27.60;99.90
21834;DHT22;11079;51.092;3.458;2022-09-03T15:59:11;27.20;99.90
21834;DHT22;11079;51.092;3.458;2022-09-03T16:07:37;27.80;99.90
21834;DHT22;11079;51.092;3.458;2022-09-03T16:10:15;28.00;99.90
21834;DHT22;11079;51.092;3.458;2022-09-03T16:13:05;28.30;99.90
21834;DHT22;11079;51.092;3.458;2022-09-03T16:18:54;28.40;99.90
21834;DHT22;11079;51.092;3.458;2022-09-03T16:24:08;28.40;99.90
21834;DHT22;11079;51.092;3.458;2022-09-03T16:26:53;28.30;99.90
21834;DHT22;11079;51.092;3.458;2022-09-03T16:29:26;28.40;99.90
21834;DHT22;11079;51.092;3.458;2022-09-03T16:40:19;28.30;99.90
21834;DHT22;11079;51.092;3.458;2022-09-03T16:49:01;28.80;99.90
21834;DHT22;11079;51.092;3.458;2022-09-03T16:51:43;28.80;99.90
21834;DHT22;11079;51.092;3.458;2022-09-03T16:54:23;28.60;99.90
21834;DHT22;11079;51.092;3.458;2022-09-03T17:00:15;27.70;99.90
21834;DHT22;11079;51.092;3.458;2022-09-03T17:08:47;26.50;99.90
21834;DHT22;11079;51.092;3.458;2022-09-03T17:11:35;26.20;99.90
21834;DHT22;11079;51.092;3.458;2022-09-03T17:17:15;26.00;99.90
21834;DHT22;11079;51.092;3.458;2022-09-03T17:19:58;25.90;99.90
21834;DHT22;11079;51.092;3.458;2022-09-03T17:25:01;25.80;99.90
21834;DHT22;11079;51.092;3.458;2022-09-03T17:30:15;25.90;99.90
21834;DHT22;11079;51.092;3.458;2022-09-03T17:40:40;25.80;99.90
21834;DHT22;11079;51.092;3.458;2022-09-03T17:43:22;25.80;99.90
21834;DHT22;11079;51.092;3.458;2022-09-03T17:48:53;25.80;99.90
21834;DHT22;11079;51.092;3.458;2022-09-03T17:51:38;25.70;99.90
21834;DHT22;11079;51.092;3.458;2022-09-03T17:54:11;25.70;99.90
21834;DHT22;11079;51.092;3.458;2022-09-03T17:59:56;25.70;99.90
21834;DHT22;11079;51.092;3.458;2022-09-03T18:02:58;25.80;99.90
21834;DHT22;11079;51.092;3.458;2022-09-03T18:05:48;25.70;99.90
21834;DHT22;11079;51.092;3.458;2022-09-03T18:08:43;25.70;99.90
21834;DHT22;11079;51.092;3.458;2022-09-03T18:16:49;25.60;99.90
21834;DHT22;11079;51.092;3.458;2022-09-03T18:19:47;25.60;99.90
21834;DHT22;11079;51.092;3.458;2022-09-03T18:22:49;25.60;99.90
21834;DHT22;11079;51.092;3.458;2022-09-03T18:25:38;25.40;99.90
21834;DHT22;11079;51.092;3.458;2022-09-03T18:28:37;25.30;99.90
21834;DHT22;11079;51.092;3.458;2022-09-03T18:31:26;25.30;99.90
21834;DHT22;11079;51.092;3.458;2022-09-03T18:34:12;25.00;99.90
21834;DHT22;11079;51.092;3.458;2022-09-03T18:36:57;25.00;99.90
21834;DHT22;11079;51.092;3.458;2022-09-03T18:39:44;25.00;99.90
21834;DHT22;11079;51.092;3.458;2022-09-03T18:42:43;24.90;99.90
21834;DHT22;11079;51.092;3.458;2022-09-03T18:49:00;24.90;99.90
21834;DHT22;11079;51.092;3.458;2022-09-03T18:52:06;24.60;99.90
21834;DHT22;11079;51.092;3.458;2022-09-03T18:58:26;24.60;99.90
21834;DHT22;11079;51.092;3.458;2022-09-03T19:01:34;24.50;99.90
21834;DHT22;11079;51.092;3.458;2022-09-03T19:07:41;24.40;99.90
21834;DHT22;11079;51.092;3.458;2022-09-03T19:10:45;24.40;99.90
21834;DHT22;11079;51.092;3.458;2022-09-03T19:13:34;24.40;99.90
21834;DHT22;11079;51.092;3.458;2022-09-03T19:22:39;24.20;99.90
21834;DHT22;11079;51.092;3.458;2022-09-03T19:25:26;24.30;99.90
21834;DHT22;11079;51.092;3.458;2022-09-03T19:28:25;24.20;99.90
21834;DHT22;11079;51.092;3.458;2022-09-03T19:37:51;24.20;99.90
21834;DHT22;11079;51.092;3.458;2022-09-03T19:40:45;24.00;99.90
21834;DHT22;11079;51.092;3.458;2022-09-03T19:47:15;23.80;99.90
21834;DHT22;11079;51.092;3.458;2022-09-03T19:50:26;23.70;99.90
21834;DHT22;11079;51.092;3.458;2022-09-03T19:53:16;23.60;99.90
21834;DHT22;11079;51.092;3.458;2022-09-03T19:56:06;23.50;99.90
21834;DHT22;11079;51.092;3.458;2022-09-03T19:58:59;23.40;99.90
21834;DHT22;11079;51.092;3.458;2022-09-03T20:01:44;23.50;99.90
21834;DHT22;11079;51.092;3.458;2022-09-03T20:04:56;23.40;99.90
21834;DHT22;11079;51.092;3.458;2022-09-03T20:07:41;23.40;99.90
21834;DHT22;11079;51.092;3.458;2022-09-03T20:10:27;23.30;99.90
21834;DHT22;11079;51.092;3.458;2022-09-03T20:28:55;22.80;99.90
21834;DHT22;11079;51.092;3.458;2022-09-03T20:32:18;22.70;99.90
21834;DHT22;11079;51.092;3.458;2022-09-03T20:37:43;22.40;99.90
21834;DHT22;11079;51.092;3.458;2022-09-03T20:43:27;22.30;99.90
21834;DHT22;11079;51.092;3.458;2022-09-03T20:51:35;22.30;99.90
21834;DHT22;11079;51.092;3.458;2022-09-03T21:16:02;22.30;99.90
21834;DHT22;11079;51.092;3.458;2022-09-03T21:21:21;22.60;99.90
21834;DHT22;11079;51.092;3.458;2022-09-03T21:24:00;22.60;99.90
21834;DHT22;11079;51.092;3.458;2022-09-03T21:26:30;22.70;99.90
21834;DHT22;11079;51.092;3.458;2022-09-03T21:32:04;22.50;99.90
21834;DHT22;11079;51.092;3.458;2022-09-03T21:34:50;22.40;99.90
21834;DHT22;11079;51.092;3.458;2022-09-03T21:37:21;22.20;99.90
21834;DHT22;11079;51.092;3.458;2022-09-03T21:39:54;22.40;99.90
21834;DHT22;11079;51.092;3.458;2022-09-03T21:42:25;22.50;99.90
21834;DHT22;11079;51.092;3.458;2022-09-03T21:45:05;22.60;99.90
21834;DHT22;11079;51.092;3.458;2022-09-03T21:47:38;22.70;99.90
21834;DHT22;11079;51.092;3.458;2022-09-03T21:50:17;22.60;99.90
21834;DHT22;11079;51.092;3.458;2022-09-03T21:52:59;22.60;99.90
21834;DHT22;11079;51.092;3.458;2022-09-03T21:58:38;22.30;99.90
21834;DHT22;11079;51.092;3.458;2022-09-03T22:01:34;22.20;99.90
21834;DHT22;11079;51.092;3.458;2022-09-03T22:04:02;22.30;99.90